AEE767 LTFJ-LGLM
Flight info
| Callsign | AEE767 |
|---|---|
| Flight time | 0h 39m |
| Altitude | 320 |
| Route | LTFJ/24L N0407F320 BARP1Z BARPE UG12 GOLDO UM603 ALX ALX1D LGLM/22L |
| Aircraft | A320/M-V/N |
Departure
| Time | 2026-05-05 08:36 |
|---|---|
| Airport | Istanbul Sabiha Gökçen International Airport (LTFJ) |
Arrival
| Time | 2026-05-05 09:15 |
|---|---|
| Airport | Limnos Airport (LGLM) |
| Time | Latitude | Longitude | Altitude | Speed | Heading |
|---|---|---|---|---|---|
| 2026-05-05 08:20 | 40.90743 | 29.31998 | 310 ft | 0 kts | 334° |
| 2026-05-05 08:26 | 40.90740 | 29.32001 | 310 ft | 2 kts | 334° |
| 2026-05-05 08:26 | 40.90725 | 29.32010 | 310 ft | 2 kts | 334° |
| 2026-05-05 08:26 | 40.90714 | 29.32023 | 310 ft | 2 kts | 271° |
| 2026-05-05 08:27 | 40.90713 | 29.32031 | 310 ft | 0 kts | 247° |
| 2026-05-05 08:27 | 40.90713 | 29.32030 | 310 ft | 1 kts | 248° |
| 2026-05-05 08:27 | 40.90707 | 29.32010 | 310 ft | 4 kts | 248° |
| 2026-05-05 08:27 | 40.90686 | 29.31964 | 311 ft | 8 kts | 233° |
| 2026-05-05 08:28 | 40.90637 | 29.31918 | 311 ft | 10 kts | 187° |
| 2026-05-05 08:28 | 40.90560 | 29.31949 | 311 ft | 13 kts | 155° |
| 2026-05-05 08:28 | 40.90484 | 29.32027 | 311 ft | 15 kts | 104° |
| 2026-05-05 08:28 | 40.90523 | 29.32163 | 311 ft | 17 kts | 62° |
| 2026-05-05 08:29 | 40.90587 | 29.32316 | 311 ft | 21 kts | 62° |
| 2026-05-05 08:29 | 40.90551 | 29.32433 | 311 ft | 11 kts | 184° |
| 2026-05-05 08:29 | 40.90495 | 29.32461 | 312 ft | 9 kts | 154° |
| 2026-05-05 08:30 | 40.90363 | 29.32553 | 311 ft | 15 kts | 148° |
| 2026-05-05 08:30 | 40.90266 | 29.32538 | 310 ft | 18 kts | 234° |
| 2026-05-05 08:30 | 40.90207 | 29.32387 | 311 ft | 20 kts | 246° |
| 2026-05-05 08:30 | 40.90154 | 29.32208 | 311 ft | 22 kts | 244° |
| 2026-05-05 08:31 | 40.90072 | 29.32079 | 311 ft | 15 kts | 186° |
| 2026-05-05 08:31 | 40.89959 | 29.32113 | 311 ft | 18 kts | 156° |
| 2026-05-05 08:31 | 40.89832 | 29.32196 | 308 ft | 23 kts | 154° |
| 2026-05-05 08:31 | 40.89668 | 29.32299 | 303 ft | 29 kts | 156° |
| 2026-05-05 08:32 | 40.89509 | 29.32413 | 304 ft | 23 kts | 104° |
| 2026-05-05 08:32 | 40.89563 | 29.32611 | 302 ft | 24 kts | 65° |
| 2026-05-05 08:32 | 40.89648 | 29.32830 | 300 ft | 30 kts | 62° |
| 2026-05-05 08:32 | 40.89755 | 29.33094 | 288 ft | 35 kts | 62° |
| 2026-05-05 08:33 | 40.89763 | 29.33334 | 292 ft | 21 kts | 155° |
| 2026-05-05 08:33 | 40.89702 | 29.33308 | 292 ft | 0 kts | 225° |
| 2026-05-05 08:34 | 40.89697 | 29.33301 | 288 ft | 4 kts | 224° |
| 2026-05-05 08:34 | 40.89638 | 29.33240 | 293 ft | 19 kts | 216° |
| 2026-05-05 08:35 | 40.89529 | 29.33092 | 296 ft | 19 kts | 241° |
| 2026-05-05 08:35 | 40.89523 | 29.33077 | 295 ft | 3 kts | 244° |
| 2026-05-05 08:35 | 40.89431 | 29.32821 | 301 ft | 68 kts | 244° |
| 2026-05-05 08:35 | 40.89118 | 29.31969 | 304 ft | 131 kts | 244° |
| 2026-05-05 08:36 | 40.88694 | 29.30759 | 623 ft | 157 kts | 246° |
| 2026-05-05 08:36 | 40.88171 | 29.29486 | 1423 ft | 157 kts | 229° |
| 2026-05-05 08:36 | 40.87191 | 29.28754 | 2030 ft | 173 kts | 204° |
| 2026-05-05 08:36 | 40.86044 | 29.28052 | 2518 ft | 196 kts | 212° |
| 2026-05-05 08:37 | 40.84819 | 29.27031 | 3107 ft | 220 kts | 216° |
| 2026-05-05 08:37 | 40.83476 | 29.25825 | 3704 ft | 246 kts | 217° |
| 2026-05-05 08:37 | 40.82007 | 29.24494 | 4462 ft | 263 kts | 217° |
| 2026-05-05 08:37 | 40.80464 | 29.23103 | 5407 ft | 272 kts | 217° |
| 2026-05-05 08:38 | 40.78888 | 29.21698 | 6406 ft | 277 kts | 216° |
| 2026-05-05 08:38 | 40.77275 | 29.20265 | 6822 ft | 280 kts | 218° |
| 2026-05-05 08:38 | 40.75931 | 29.18452 | 6973 ft | 279 kts | 241° |
| 2026-05-05 08:38 | 40.75042 | 29.16158 | 7012 ft | 282 kts | 248° |
| 2026-05-05 08:39 | 40.74197 | 29.13823 | 6999 ft | 282 kts | 248° |
| 2026-05-05 08:39 | 40.73352 | 29.11484 | 6999 ft | 282 kts | 248° |
| 2026-05-05 08:39 | 40.72507 | 29.09148 | 6999 ft | 283 kts | 248° |
| 2026-05-05 08:39 | 40.71659 | 29.06811 | 6999 ft | 282 kts | 248° |
| 2026-05-05 08:40 | 40.70935 | 29.04404 | 7236 ft | 287 kts | 262° |
| 2026-05-05 08:40 | 40.70737 | 29.01819 | 8304 ft | 283 kts | 269° |
| 2026-05-05 08:40 | 40.70569 | 28.99228 | 9338 ft | 285 kts | 269° |
| 2026-05-05 08:40 | 40.70391 | 28.96603 | 10250 ft | 292 kts | 269° |
| 2026-05-05 08:41 | 40.70205 | 28.93830 | 10610 ft | 316 kts | 269° |
| 2026-05-05 08:41 | 40.70011 | 28.90832 | 10901 ft | 339 kts | 269° |
| 2026-05-05 08:41 | 40.69806 | 28.87651 | 11315 ft | 356 kts | 269° |
| 2026-05-05 08:41 | 40.69591 | 28.84371 | 11980 ft | 363 kts | 268° |
| 2026-05-05 08:42 | 40.69371 | 28.81035 | 12718 ft | 368 kts | 268° |
| 2026-05-05 08:42 | 40.69144 | 28.77651 | 13482 ft | 373 kts | 268° |
| 2026-05-05 08:42 | 40.68916 | 28.74230 | 14197 ft | 377 kts | 268° |
| 2026-05-05 08:42 | 40.68687 | 28.70772 | 14876 ft | 381 kts | 269° |
| 2026-05-05 08:43 | 40.68800 | 28.67307 | 15502 ft | 380 kts | 281° |
| 2026-05-05 08:43 | 40.69159 | 28.63842 | 16158 ft | 383 kts | 281° |
| 2026-05-05 08:43 | 40.69531 | 28.60354 | 16817 ft | 386 kts | 282° |
| 2026-05-05 08:43 | 40.69911 | 28.56836 | 17494 ft | 389 kts | 282° |
| 2026-05-05 08:44 | 40.70291 | 28.53294 | 18162 ft | 393 kts | 282° |
| 2026-05-05 08:44 | 40.70669 | 28.49712 | 18777 ft | 396 kts | 281° |
| 2026-05-05 08:44 | 40.71045 | 28.46106 | 19436 ft | 398 kts | 281° |
| 2026-05-05 08:44 | 40.71421 | 28.42493 | 20119 ft | 399 kts | 281° |
| 2026-05-05 08:45 | 40.71797 | 28.38867 | 20791 ft | 399 kts | 281° |
| 2026-05-05 08:45 | 40.72174 | 28.35237 | 21434 ft | 400 kts | 280° |
| 2026-05-05 08:45 | 40.72549 | 28.31606 | 22076 ft | 401 kts | 280° |
| 2026-05-05 08:45 | 40.72924 | 28.27962 | 22697 ft | 401 kts | 280° |
| 2026-05-05 08:46 | 40.73299 | 28.24307 | 23308 ft | 402 kts | 279° |
| 2026-05-05 08:46 | 40.73672 | 28.20653 | 23856 ft | 403 kts | 279° |
| 2026-05-05 08:46 | 40.74046 | 28.16990 | 24313 ft | 405 kts | 279° |
| 2026-05-05 08:46 | 40.74421 | 28.13292 | 24743 ft | 407 kts | 279° |
| 2026-05-05 08:47 | 40.74799 | 28.09572 | 25168 ft | 410 kts | 279° |
| 2026-05-05 08:47 | 40.75176 | 28.05842 | 25575 ft | 412 kts | 279° |
| 2026-05-05 08:47 | 40.75555 | 28.02082 | 26017 ft | 415 kts | 279° |
| 2026-05-05 08:47 | 40.75934 | 27.98300 | 26454 ft | 417 kts | 279° |
| 2026-05-05 08:48 | 40.76316 | 27.94488 | 26878 ft | 420 kts | 278° |
| 2026-05-05 08:48 | 40.76697 | 27.90656 | 27287 ft | 423 kts | 278° |
| 2026-05-05 08:48 | 40.77079 | 27.86801 | 27686 ft | 426 kts | 278° |
| 2026-05-05 08:48 | 40.77467 | 27.82916 | 28084 ft | 428 kts | 278° |
| 2026-05-05 08:49 | 40.77856 | 27.79007 | 28485 ft | 431 kts | 278° |
| 2026-05-05 08:49 | 40.78243 | 27.75075 | 28884 ft | 434 kts | 278° |
| 2026-05-05 08:49 | 40.78630 | 27.71114 | 29278 ft | 437 kts | 278° |
| 2026-05-05 08:49 | 40.79016 | 27.67132 | 29721 ft | 438 kts | 278° |
| 2026-05-05 08:50 | 40.79401 | 27.63155 | 30290 ft | 436 kts | 278° |
| 2026-05-05 08:50 | 40.79904 | 27.59214 | 30770 ft | 435 kts | 284° |
| 2026-05-05 08:50 | 40.80703 | 27.55370 | 31234 ft | 435 kts | 286° |
| 2026-05-05 08:50 | 40.81515 | 27.51528 | 31699 ft | 434 kts | 286° |
| 2026-05-05 08:51 | 40.82325 | 27.47677 | 32010 ft | 435 kts | 286° |
| 2026-05-05 08:51 | 40.83938 | 27.39977 | 32081 ft | 435 kts | 287° |
| 2026-05-05 08:52 | 40.85530 | 27.32279 | 32083 ft | 435 kts | 287° |
| 2026-05-05 08:52 | 40.87113 | 27.24580 | 32076 ft | 434 kts | 287° |
| 2026-05-05 08:53 | 40.88697 | 27.16884 | 32079 ft | 433 kts | 287° |
| 2026-05-05 08:53 | 40.90280 | 27.09197 | 32083 ft | 434 kts | 287° |
| 2026-05-05 08:54 | 40.91592 | 27.02792 | 32082 ft | 434 kts | 287° |
| 2026-05-05 08:54 | 40.92417 | 26.94886 | 32081 ft | 439 kts | 271° |
| 2026-05-05 08:55 | 40.91967 | 26.86834 | 32072 ft | 440 kts | 268° |
| 2026-05-05 08:55 | 40.91504 | 26.78760 | 32064 ft | 441 kts | 269° |
| 2026-05-05 08:56 | 40.91039 | 26.70666 | 32068 ft | 442 kts | 269° |
| 2026-05-05 08:56 | 40.90798 | 26.66603 | 31798 ft | 444 kts | 269° |
| 2026-05-05 08:56 | 40.90554 | 26.62540 | 31269 ft | 442 kts | 268° |
| 2026-05-05 08:56 | 40.90308 | 26.58526 | 30740 ft | 436 kts | 268° |
| 2026-05-05 08:57 | 40.90062 | 26.54563 | 30222 ft | 430 kts | 269° |
| 2026-05-05 08:57 | 40.89820 | 26.50644 | 29634 ft | 425 kts | 269° |
| 2026-05-05 08:57 | 40.89579 | 26.46782 | 29047 ft | 419 kts | 269° |
| 2026-05-05 08:57 | 40.89341 | 26.42961 | 28471 ft | 414 kts | 269° |
| 2026-05-05 08:58 | 40.89110 | 26.39187 | 27912 ft | 409 kts | 269° |
| 2026-05-05 08:58 | 40.88882 | 26.35460 | 27348 ft | 405 kts | 269° |
| 2026-05-05 08:58 | 40.88653 | 26.31782 | 26805 ft | 400 kts | 269° |
| 2026-05-05 08:58 | 40.88423 | 26.28140 | 26272 ft | 395 kts | 268° |
| 2026-05-05 08:59 | 40.88192 | 26.24544 | 25736 ft | 391 kts | 268° |
| 2026-05-05 08:59 | 40.87915 | 26.20988 | 25219 ft | 388 kts | 267° |
| 2026-05-05 08:59 | 40.87588 | 26.17459 | 24714 ft | 386 kts | 266° |
| 2026-05-05 08:59 | 40.87235 | 26.13955 | 24211 ft | 383 kts | 266° |
| 2026-05-05 09:00 | 40.86874 | 26.10482 | 23725 ft | 381 kts | 266° |
| 2026-05-05 09:00 | 40.86517 | 26.07019 | 23153 ft | 379 kts | 266° |
| 2026-05-05 09:00 | 40.86037 | 26.03596 | 22585 ft | 380 kts | 258° |
| 2026-05-05 09:00 | 40.85166 | 26.00306 | 22025 ft | 381 kts | 250° |
| 2026-05-05 09:01 | 40.83900 | 25.97216 | 21478 ft | 383 kts | 240° |
| 2026-05-05 09:01 | 40.82280 | 25.94418 | 20879 ft | 386 kts | 231° |
| 2026-05-05 09:01 | 40.80329 | 25.91970 | 20227 ft | 390 kts | 221° |
| 2026-05-05 09:01 | 40.78078 | 25.89949 | 19603 ft | 393 kts | 212° |
| 2026-05-05 09:02 | 40.75724 | 25.88123 | 18977 ft | 393 kts | 212° |
| 2026-05-05 09:02 | 40.73368 | 25.86294 | 18365 ft | 393 kts | 212° |
| 2026-05-05 09:02 | 40.71018 | 25.84467 | 17654 ft | 392 kts | 212° |
| 2026-05-05 09:02 | 40.68673 | 25.82644 | 16977 ft | 391 kts | 212° |
| 2026-05-05 09:03 | 40.66336 | 25.80825 | 16299 ft | 390 kts | 212° |
| 2026-05-05 09:03 | 40.63991 | 25.79037 | 15781 ft | 386 kts | 211° |
| 2026-05-05 09:03 | 40.61670 | 25.77350 | 15449 ft | 377 kts | 210° |
| 2026-05-05 09:03 | 40.59383 | 25.75737 | 15080 ft | 369 kts | 209° |
| 2026-05-05 09:04 | 40.57135 | 25.74171 | 14695 ft | 363 kts | 209° |
| 2026-05-05 09:04 | 40.54918 | 25.72628 | 14313 ft | 359 kts | 209° |
| 2026-05-05 09:04 | 40.52727 | 25.71097 | 13932 ft | 355 kts | 209° |
| 2026-05-05 09:04 | 40.50564 | 25.69576 | 13510 ft | 351 kts | 209° |
| 2026-05-05 09:05 | 40.48422 | 25.68060 | 13090 ft | 348 kts | 209° |
| 2026-05-05 09:05 | 40.46301 | 25.66555 | 12668 ft | 346 kts | 210° |
| 2026-05-05 09:05 | 40.44191 | 25.65058 | 12266 ft | 344 kts | 210° |
| 2026-05-05 09:05 | 40.42096 | 25.63572 | 11835 ft | 340 kts | 210° |
| 2026-05-05 09:06 | 40.40024 | 25.62102 | 11419 ft | 336 kts | 210° |
| 2026-05-05 09:06 | 40.37975 | 25.60654 | 11033 ft | 333 kts | 209° |
| 2026-05-05 09:06 | 40.35939 | 25.59220 | 10641 ft | 331 kts | 210° |
| 2026-05-05 09:06 | 40.33919 | 25.57796 | 10249 ft | 329 kts | 210° |
| 2026-05-05 09:07 | 40.31904 | 25.56378 | 9863 ft | 328 kts | 210° |
| 2026-05-05 09:07 | 40.29929 | 25.54990 | 9437 ft | 324 kts | 210° |
| 2026-05-05 09:07 | 40.27980 | 25.53623 | 9024 ft | 314 kts | 210° |
| 2026-05-05 09:07 | 40.26096 | 25.52303 | 8605 ft | 301 kts | 210° |
| 2026-05-05 09:08 | 40.24282 | 25.51032 | 8195 ft | 293 kts | 210° |
| 2026-05-05 09:08 | 40.22485 | 25.49767 | 7790 ft | 294 kts | 210° |
| 2026-05-05 09:08 | 40.20681 | 25.48497 | 7384 ft | 291 kts | 210° |
| 2026-05-05 09:08 | 40.18932 | 25.47269 | 6990 ft | 281 kts | 210° |
| 2026-05-05 09:09 | 40.17238 | 25.46079 | 6604 ft | 272 kts | 210° |
| 2026-05-05 09:09 | 40.15591 | 25.44922 | 6149 ft | 266 kts | 210° |
| 2026-05-05 09:09 | 40.13976 | 25.43791 | 5674 ft | 262 kts | 210° |
| 2026-05-05 09:09 | 40.12383 | 25.42676 | 5193 ft | 258 kts | 210° |
| 2026-05-05 09:10 | 40.10814 | 25.41578 | 4704 ft | 254 kts | 211° |
| 2026-05-05 09:10 | 40.09274 | 25.40501 | 4227 ft | 250 kts | 211° |
| 2026-05-05 09:10 | 40.07753 | 25.39437 | 3754 ft | 245 kts | 210° |
| 2026-05-05 09:10 | 40.06271 | 25.38400 | 3338 ft | 237 kts | 210° |
| 2026-05-05 09:11 | 40.04853 | 25.37412 | 3030 ft | 225 kts | 210° |
| 2026-05-05 09:11 | 40.03544 | 25.36504 | 2763 ft | 199 kts | 209° |
| 2026-05-05 09:11 | 40.02398 | 25.35710 | 2503 ft | 176 kts | 210° |
| 2026-05-05 09:11 | 40.01373 | 25.34995 | 2293 ft | 159 kts | 210° |
| 2026-05-05 09:12 | 40.00439 | 25.34330 | 2085 ft | 147 kts | 213° |
| 2026-05-05 09:12 | 39.99715 | 25.33488 | 1897 ft | 139 kts | 224° |
| 2026-05-05 09:12 | 39.99016 | 25.32621 | 1726 ft | 135 kts | 223° |
| 2026-05-05 09:12 | 39.98338 | 25.31788 | 1539 ft | 134 kts | 222° |
| 2026-05-05 09:13 | 39.97670 | 25.30967 | 1358 ft | 134 kts | 221° |
| 2026-05-05 09:13 | 39.96992 | 25.30131 | 1180 ft | 135 kts | 223° |
| 2026-05-05 09:13 | 39.96311 | 25.29290 | 1007 ft | 135 kts | 222° |
| 2026-05-05 09:13 | 39.95628 | 25.28449 | 828 ft | 135 kts | 221° |
| 2026-05-05 09:14 | 39.94943 | 25.27606 | 658 ft | 135 kts | 221° |
| 2026-05-05 09:14 | 39.94264 | 25.26768 | 461 ft | 134 kts | 221° |
| 2026-05-05 09:14 | 39.93602 | 25.25922 | 271 ft | 134 kts | 221° |
| 2026-05-05 09:14 | 39.92924 | 25.25117 | 103 ft | 131 kts | 220° |
| 2026-05-05 09:15 | 39.92262 | 25.24317 | 21 ft | 121 kts | 221° |
| 2026-05-05 09:15 | 39.91871 | 25.23834 | 21 ft | 34 kts | 223° |
| 2026-05-05 09:15 | 39.91832 | 25.23786 | 23 ft | 5 kts | 223° |
| 2026-05-05 09:15 | 39.91763 | 25.23702 | 23 ft | 17 kts | 223° |
| 2026-05-05 09:16 | 39.91664 | 25.23581 | 24 ft | 23 kts | 223° |
| 2026-05-05 09:16 | 39.91536 | 25.23429 | 21 ft | 27 kts | 222° |
| 2026-05-05 09:16 | 39.91388 | 25.23257 | 22 ft | 30 kts | 221° |
| 2026-05-05 09:16 | 39.91228 | 25.23069 | 20 ft | 32 kts | 224° |
| 2026-05-05 09:17 | 39.91182 | 25.22853 | 23 ft | 27 kts | 294° |
| 2026-05-05 09:17 | 39.91312 | 25.22829 | 23 ft | 26 kts | 46° |
| 2026-05-05 09:17 | 39.91447 | 25.23010 | 22 ft | 30 kts | 46° |
| 2026-05-05 09:17 | 39.91605 | 25.23207 | 22 ft | 33 kts | 43° |
| 2026-05-05 09:18 | 39.91778 | 25.23420 | 24 ft | 35 kts | 44° |
| 2026-05-05 09:18 | 39.91970 | 25.23623 | 24 ft | 32 kts | 14° |
| 2026-05-05 09:18 | 39.92158 | 25.23496 | 22 ft | 23 kts | 342° |
| 2026-05-05 09:18 | 39.92224 | 25.23518 | 24 ft | 10 kts | 45° |
| 2026-05-05 09:19 | 39.92229 | 25.23524 | 24 ft | 0 kts | 45° |